Huvudsida
METAR-TAF:

METAR-TAF

Flygplatser :

Aqtöbe, Kazakstan

latitud: 50-17N, longitud: 057-09E, höjd: 227 m

Aktuellt väderrapport

Denna rapport gjordes för 34 minuter sedan, klockan 07:30 UTC
Vind 10 kt från syd/sydväst
Temperatur 12°C
Fuktighet 40%
Tryck 1022 hPa
Sikt 10 km eller mer
Inga moln under 1 500 m eller inga cumulonimbus

METAR: UATT 230730Z 20005MPS CAVOK 12/M01 Q1022 R13/70D NOSIG RMK QFE747/0996

Tid: 13:04 (08:04 UTC)

Väderprognos

Denna rapport gjordes för 3 timmar och 4 minuter sedan, klockan 05:00 UTC
Prognos gäller från 23 kl. 06 UTC till 24 kl. 06 UTC
Vind 14 kt från syd
Sikt 10 km eller mer
Inga moln under 1 500 m eller inga cumulonimbus
Temporärt
från 23 kl. 20 UTC till 24 kl. 06 UTC
Sikt: 3000 m
Brutna moln på en höjd av 1000 ft
fuktdis

TAF: UATT 230500Z 2306/2406 18007MPS CAVOK TX14/2312Z TN03/2402Z TEMPO 2320/2406 3000 BR BKN010

Aktuella väderrapporter och prognoser från 4000 flygplatser (METAR- och TAF-rapporter).

De tillgängliga stationerna syns som gula och röda prickar på kartan.

För musen över prickarna för att se namnen på stationerna.

Klicka sedan för att få väderrapporter och prognoser.

För att ändra kartan: Klicka på de gröna knapparna med ett svart kors på för att zooma in; den gröna knappen med ett streck på för att zooma ut; eller på de gröna pilarna för angränsande kartor.


METAR-TAF: